Capitol Logistics 7306

Operating for MZN



KCVG
Cincinnati/Northern Kentucky International Airport
Covington, Kentucky
KABE
Lehigh Valley International Airport
Allentown, Pennsylvania

Activity Log

Date Flight Route Aircraft Duration
04/10/2021 CPX7306 ROCKT1 ROCKT HIDON Q42 PSYKO Q71 PSB V30 ETX B752 1h 37m
04/08/2021 CPX7306 ROCKT1 ROCKT HIDON Q42 PSYKO Q71 PSB V30 ETX B752 1h 23m

Route Details

Aircraft Information
Primary: Boeing 767-300BDSF
Backup: Boeing 757-200SF
Route Data
Distance: 437nm
Duration: 1h 25m
Recm'd Route: ROCKT1 ROCKT HIDON Q42 PSYKO Q71 PSB V30 ETX
Origin Wx: KCVG 141952Z 21007KT 10SM FEW042 SCT130 BKN250 15/04 A3000 RMK AO2 SLP156 T01500044
Dest. Wx: KABE 141951Z 24006KT 10SM FEW065 OVC085 16/10 A2994 RMK AO2 RAE1855 SLP140 P0000 T01610100 $
Notes: